< < Back
Terminal Aerodrome Forecast


Current Version              Previous Versions:   1  2  3  4  5  6  7  8  9  

Terminal Aerodrome Forecast

842
FTUS42 KFFC 100532
TAFATL
TAF
KATL 100532Z 1006/1112 30012G22KT P6SM SCT028 BKN060
      TEMPO 1006/1010 BKN030
     FM101400 29015G25KT P6SM BKN050
     FM101800 29015G25KT P6SM SCT060
     FM110000 30012KT P6SM SCT100=

Latest METAR

436
SAUS70 KWBC 101300 RRK
MTRATL
METAR KATL 101252Z 30011KT 10SM SCT032 M06/M12 A3010 RMK AO2 SLP204
T10561122


USA.gov is the U.S. government's official web portal to all federal, state and local government web resources and services.